Dutch
Home     News     Corporate     Events & Tours     Flight ops     Crew centre      
My transavia virtual    Join us    Last logs    Who is flying    Software    Training    VRTS     
 

view flightdata
view flightplan
view OFP
view flightlog



flightdata:
pilot: Keith Giannoni
flight: TVF7001
from: LFPG (Paris Paris Charles de Gaulle)
to: EIDW (Dublin)
date: 21-02-2021
departure: 17:39z
arrival: 19:07z
duration: 1:27
aircraft: B737 (FGFRD)
distance: 495 NM
touchdown: -255 ft/m @ 145 KIAS



flightplan:
-(FPL-TVF7001-IS
-B737/M-SDEHPRWXY/EHLSB1
-LFPG1740
-N0440F380 ATREX UT225 VESAN UL613 SOVAT L613 SANDY UN601 LESTA UP6 RODOL UL28 LELDO M145 BAGSO
-EIDW0130 EGCC
-PBN/B1D1LO1 DOF/210221 REG/FGFRD SEL/JQDH CODE/4841A5 OPR/TRA RVR/200 RMK/TCAS)



operational flightplan (OFP):
NO LOADSHEET AVAILABLE

WEATHER BRIEFING - GENERATED 21 FEB 2021 17:25 UTC
--------------------------------------------------------------------------------

LFPG EIDW EGCC

--------------------------------------------------------------------------------
ORIGIN: LFPG (PARIS)
--------------------------------------------------------------------------------
LFPG 211700Z 15006KT CAVOK 15/05 Q1011 NOSIG

LFPG 211100Z 2112/2218 16010KT CAVOK TX17/2114Z TN07/2205Z=  LFPO 211100Z 2112/2218 16007KT CAVOK


--------------------------------------------------------------------------------
DESTINATION: EIDW (DUBLIN)
--------------------------------------------------------------------------------
EIDW 211700Z 20009KT 160V230 9999 FEW018 BKN200 10/03 Q1004 NOSIG

EIDW 211100Z 2112/2212 20010KT 9999 SCT020 PROB30
      TEMPO 2113/2116 22015G25KT


--------------------------------------------------------------------------------
ALTERNATE: EGCC (MANCHESTER)
--------------------------------------------------------------------------------
EGCC 211650Z AUTO VRB02KT 9999 -RA SCT028 BKN037 10/08 Q1007 NOSIG

EGCC 211058Z 2112/2218 17003KT 9999 FEW025
      TEMPO 2112/2212 8000 -RA BKN014 PROB30
      TEMPO 2112/2124 4000 RADZ BKN008 PROB40
      TEMPO 2200/2210 4000 RADZ BR BKN006


NOTAM BRIEFING - GENERATED 21 FEB 2021 17:26 UTC
--------------------------------------------------------------------------------

LFPG EIDW EGCC

--------------------------------------------------------------------------------
GLOBAL TRANSAVIA.COM VIRTUAL NOTAMS
--------------------------------------------------------------------------------
REF:NIL PLEASE CONTACT OPERATIONS IN CASE OF STRUCTURAL FLIGHTPLAN ERRORS ON FLIGHT-OPS@TRANSAVIA-VIRTUAL.COM
VALID:UFN

REF:NIL
PLEASE CHECK ACARS EVERY 10 MINUTES WHEN FLYING WITH SOUND OFF. AN NEW ACARS MESSAGE PRODUCE A SOUND SIGNAL UNTILL ITS READ. FLOWCONTROL DON'T RECEIVE MUCH REACTION ON OUTGOING ACARS MESSAGES ACCORDING FLIGHTSTATUS.
SOURCE: SPL/HV/OCC/
END VALID: UFN

REF:NIL
PLEASE CONTACT FLOWCONTROL IN CASE OF PROBLEMS WITH ROUTINGS
SOURCE: SPL/HV/OCC/
END VALID: UFN

REF:NIL
IN CASE OF ENGINE-OUT FLY V2 OR V2 20 MAX. UNTIL ABOVE MSA.
LEVEL-OFF AT AN ALTITUDE ROUNDED OFF TO THE FIRST 1000 FT OF THE HIGHEST MSA.
E.G: MSA EHAM; 1.7 AND 2.3 LEVEL-OFF 3000 FT. AFTER LANDING MAKE A REP TO OCC ON 131.975
SOURCE:SPL/HV/OCC
END VALID:UFN



flightlog:
Pilot : Keith Giannoni
Flight: TVF7001
From  : LFPG Paris
To    : EIDW Dublin

[FLIGHTLOG] 1.5.4
21-02-2021 17:38:36z, logging started
21-02-2021 17:39:49z, parking brake released
21-02-2021 17:42:58z, flaps set to 13%
21-02-2021 17:43:07z, flaps set to 25%
21-02-2021 17:43:11z, flaps set to 38%
21-02-2021 17:50:05z, take-off at 153 KIAS
21-02-2021 17:50:05z, pos report: 153 KIAS, 00 403 ft, heading 086, winds 120 @ 07 kts
21-02-2021 17:50:05z, flying online @ IVAO (TVF20Y)
21-02-2021 17:50:05z, position: LFPG - Paris
21-02-2021 17:50:11z, retracted gear at 165 KIAS and 165 ft AGL
21-02-2021 17:51:29z, flaps set to 25%
21-02-2021 17:51:33z, flaps set to 13%
21-02-2021 17:51:41z, flaps set to 0%
21-02-2021 17:53:36z, pos report: 254 KIAS, 08 813 ft, heading 014, winds 193 @ 22 kts
21-02-2021 18:08:37z, pos report: 252 KIAS, 37 904 ft, heading 312, winds 189 @ 59 kts
21-02-2021 18:23:38z, pos report: 250 KIAS, 37 871 ft, heading 321, winds 191 @ 92 kts
21-02-2021 18:38:39z, pos report: 254 KIAS, 37 839 ft, heading 267, winds 194 @ 94 kts
21-02-2021 18:53:40z, pos report: 235 KIAS, 09 932 ft, heading 229, winds 205 @ 28 kts
21-02-2021 18:56:16z, flaps set to 13%
21-02-2021 18:56:23z, flaps set to 25%
21-02-2021 18:57:59z, below glideslope
21-02-2021 19:00:07z, intercepted localizer
21-02-2021 19:00:40z, on glideslope
21-02-2021 19:01:12z, flaps set to 38%
21-02-2021 19:02:14z, flaps set to 50%
21-02-2021 19:02:18z, flaps set to 62%
21-02-2021 19:02:20z, lowered gear at 155 KIAS and 1804 ft AGL
21-02-2021 19:02:32z, flaps set to 75%
21-02-2021 19:02:37z, flaps set to 87%
21-02-2021 19:04:27z, touchdown: -255ft/m at 145 KIAS
21-02-2021 19:04:27z, pos report: 145 KIAS, 00 251 ft, heading 273, winds 147 @ 05 kts
21-02-2021 19:04:27z, flying online @ IVAO (TVF20Y)
21-02-2021 19:04:27z, position: EIDW - Dublin
21-02-2021 19:04:28z, deployed spoilers
21-02-2021 19:04:57z, retracted spoilers
21-02-2021 19:05:28z, flaps set to 75%
21-02-2021 19:05:31z, flaps set to 62%
21-02-2021 19:05:33z, flaps set to 50%
21-02-2021 19:05:36z, flaps set to 38%
21-02-2021 19:05:41z, flaps set to 25%
21-02-2021 19:05:45z, flaps set to 13%
21-02-2021 19:05:52z, flaps set to 0%
21-02-2021 19:07:22z, parking brake set
21-02-2021 19:07:55z, logging ended

©2009-2021, transavia virtual. All rights reserved. This website is only meant for simulation purposes.
This website is not owned by transavia, nor is transavia responsible for the content of this website.